sensor_id;sensor_type;location;lat;lon;timestamp;P1;durP1;ratioP1;P2;durP2;ratioP2
19414;SDS011;9843;48.882;12.592;2022-07-10T00:00:33;15.23;;;12.47;;
19414;SDS011;9843;48.882;12.592;2022-07-10T00:03:01;14.07;;;12.07;;
19414;SDS011;9843;48.882;12.592;2022-07-10T00:05:28;16.20;;;13.17;;
19414;SDS011;9843;48.882;12.592;2022-07-10T00:07:55;11.53;;;10.53;;
19414;SDS011;9843;48.882;12.592;2022-07-10T00:10:22;12.27;;;10.97;;
19414;SDS011;9843;48.882;12.592;2022-07-10T00:12:50;12.50;;;11.37;;
19414;SDS011;9843;48.882;12.592;2022-07-10T00:15:17;14.00;;;11.13;;
19414;SDS011;9843;48.882;12.592;2022-07-10T00:17:46;13.50;;;12.13;;
19414;SDS011;9843;48.882;12.592;2022-07-10T00:20:13;12.80;;;11.30;;
19414;SDS011;9843;48.882;12.592;2022-07-10T00:22:41;13.50;;;11.57;;
19414;SDS011;9843;48.882;12.592;2022-07-10T00:25:09;14.00;;;12.17;;
19414;SDS011;9843;48.882;12.592;2022-07-10T00:27:37;12.47;;;10.83;;
19414;SDS011;9843;48.882;12.592;2022-07-10T00:30:05;12.43;;;11.23;;
19414;SDS011;9843;48.882;12.592;2022-07-10T00:32:32;11.00;;;10.00;;
19414;SDS011;9843;48.882;12.592;2022-07-10T00:35:01;11.10;;;10.17;;
19414;SDS011;9843;48.882;12.592;2022-07-10T00:37:28;9.97;;;9.17;;
19414;SDS011;9843;48.882;12.592;2022-07-10T00:39:55;11.80;;;10.47;;
19414;SDS011;9843;48.882;12.592;2022-07-10T00:42:21;15.10;;;11.37;;
19414;SDS011;9843;48.882;12.592;2022-07-10T00:44:48;13.70;;;12.43;;
19414;SDS011;9843;48.882;12.592;2022-07-10T00:47:15;11.00;;;10.00;;
19414;SDS011;9843;48.882;12.592;2022-07-10T00:49:44;14.67;;;13.10;;
19414;SDS011;9843;48.882;12.592;2022-07-10T00:52:14;12.57;;;11.37;;
19414;SDS011;9843;48.882;12.592;2022-07-10T00:54:42;13.93;;;11.57;;
19414;SDS011;9843;48.882;12.592;2022-07-10T00:57:10;11.53;;;10.33;;
19414;SDS011;9843;48.882;12.592;2022-07-10T00:59:40;14.03;;;12.53;;
19414;SDS011;9843;48.882;12.592;2022-07-10T01:02:07;13.57;;;12.43;;
19414;SDS011;9843;48.882;12.592;2022-07-10T01:04:35;16.83;;;12.67;;
19414;SDS011;9843;48.882;12.592;2022-07-10T01:07:02;17.50;;;12.30;;
19414;SDS011;9843;48.882;12.592;2022-07-10T01:09:31;15.53;;;13.50;;
19414;SDS011;9843;48.882;12.592;2022-07-10T01:11:59;13.47;;;12.10;;
19414;SDS011;9843;48.882;12.592;2022-07-10T01:14:27;12.33;;;11.33;;
19414;SDS011;9843;48.882;12.592;2022-07-10T01:16:55;13.23;;;12.07;;
19414;SDS011;9843;48.882;12.592;2022-07-10T01:19:21;13.93;;;12.73;;
19414;SDS011;9843;48.882;12.592;2022-07-10T01:21:49;12.30;;;10.80;;
19414;SDS011;9843;48.882;12.592;2022-07-10T01:24:16;11.77;;;10.57;;
19414;SDS011;9843;48.882;12.592;2022-07-10T01:26:43;12.23;;;11.03;;
19414;SDS011;9843;48.882;12.592;2022-07-10T01:29:10;11.83;;;10.70;;
19414;SDS011;9843;48.882;12.592;2022-07-10T01:31:37;11.10;;;10.00;;
19414;SDS011;9843;48.882;12.592;2022-07-10T01:34:05;11.53;;;10.50;;
19414;SDS011;9843;48.882;12.592;2022-07-10T01:36:34;12.70;;;10.20;;
19414;SDS011;9843;48.882;12.592;2022-07-10T01:39:02;12.03;;;10.83;;
19414;SDS011;9843;48.882;12.592;2022-07-10T01:41:30;11.03;;;9.93;;
19414;SDS011;9843;48.882;12.592;2022-07-10T01:43:56;10.80;;;9.90;;
19414;SDS011;9843;48.882;12.592;2022-07-10T01:46:23;11.10;;;10.10;;
19414;SDS011;9843;48.882;12.592;2022-07-10T01:48:50;12.83;;;10.13;;
19414;SDS011;9843;48.882;12.592;2022-07-10T01:51:17;10.13;;;9.10;;
19414;SDS011;9843;48.882;12.592;2022-07-10T01:53:44;11.40;;;10.30;;
19414;SDS011;9843;48.882;12.592;2022-07-10T01:56:13;11.17;;;10.07;;
19414;SDS011;9843;48.882;12.592;2022-07-10T01:58:41;12.63;;;10.33;;
19414;SDS011;9843;48.882;12.592;2022-07-10T02:01:08;12.10;;;9.87;;
19414;SDS011;9843;48.882;12.592;2022-07-10T02:03:36;11.00;;;9.90;;
19414;SDS011;9843;48.882;12.592;2022-07-10T02:06:20;10.27;;;9.40;;
19414;SDS011;9843;48.882;12.592;2022-07-10T02:08:47;10.90;;;9.80;;
19414;SDS011;9843;48.882;12.592;2022-07-10T02:11:15;17.80;;;10.83;;
19414;SDS011;9843;48.882;12.592;2022-07-10T02:13:42;13.77;;;11.03;;
19414;SDS011;9843;48.882;12.592;2022-07-10T02:16:09;12.07;;;10.70;;
19414;SDS011;9843;48.882;12.592;2022-07-10T02:18:36;14.10;;;12.10;;
19414;SDS011;9843;48.882;12.592;2022-07-10T02:21:04;19.27;;;10.67;;
19414;SDS011;9843;48.882;12.592;2022-07-10T02:23:31;14.47;;;9.50;;
19414;SDS011;9843;48.882;12.592;2022-07-10T02:25:58;13.50;;;12.10;;
19414;SDS011;9843;48.882;12.592;2022-07-10T02:28:26;14.27;;;12.77;;
19414;SDS011;9843;48.882;12.592;2022-07-10T02:30:53;11.30;;;10.00;;
19414;SDS011;9843;48.882;12.592;2022-07-10T02:33:20;10.47;;;9.57;;
19414;SDS011;9843;48.882;12.592;2022-07-10T02:35:47;11.50;;;10.43;;
19414;SDS011;9843;48.882;12.592;2022-07-10T02:38:14;11.77;;;10.57;;
19414;SDS011;9843;48.882;12.592;2022-07-10T02:40:40;13.27;;;11.53;;
19414;SDS011;9843;48.882;12.592;2022-07-10T02:43:07;15.03;;;10.63;;
19414;SDS011;9843;48.882;12.592;2022-07-10T02:45:35;12.47;;;11.23;;
19414;SDS011;9843;48.882;12.592;2022-07-10T02:48:02;10.20;;;9.30;;
19414;SDS011;9843;48.882;12.592;2022-07-10T02:50:29;11.70;;;10.60;;
19414;SDS011;9843;48.882;12.592;2022-07-10T02:52:56;14.33;;;12.67;;
19414;SDS011;9843;48.882;12.592;2022-07-10T02:55:23;13.87;;;10.03;;
19414;SDS011;9843;48.882;12.592;2022-07-10T02:57:49;13.40;;;12.20;;
19414;SDS011;9843;48.882;12.592;2022-07-10T03:00:16;13.10;;;11.43;;
19414;SDS011;9843;48.882;12.592;2022-07-10T03:02:44;11.57;;;10.53;;
19414;SDS011;9843;48.882;12.592;2022-07-10T03:05:11;17.70;;;12.57;;
19414;SDS011;9843;48.882;12.592;2022-07-10T03:07:38;11.97;;;10.87;;
19414;SDS011;9843;48.882;12.592;2022-07-10T03:10:05;12.37;;;11.27;;
19414;SDS011;9843;48.882;12.592;2022-07-10T03:12:32;17.30;;;12.00;;
19414;SDS011;9843;48.882;12.592;2022-07-10T03:14:59;14.83;;;12.30;;
19414;SDS011;9843;48.882;12.592;2022-07-10T03:17:26;14.50;;;11.67;;
19414;SDS011;9843;48.882;12.592;2022-07-10T03:19:54;12.80;;;11.67;;
19414;SDS011;9843;48.882;12.592;2022-07-10T03:22:20;15.03;;;12.67;;
19414;SDS011;9843;48.882;12.592;2022-07-10T03:24:47;16.30;;;13.70;;
19414;SDS011;9843;48.882;12.592;2022-07-10T03:27:14;13.50;;;11.63;;
19414;SDS011;9843;48.882;12.592;2022-07-10T03:29:41;12.87;;;11.67;;
19414;SDS011;9843;48.882;12.592;2022-07-10T03:32:08;13.10;;;11.67;;
19414;SDS011;9843;48.882;12.592;2022-07-10T03:34:35;13.20;;;11.70;;
19414;SDS011;9843;48.882;12.592;2022-07-10T03:37:03;14.67;;;11.57;;
19414;SDS011;9843;48.882;12.592;2022-07-10T03:39:30;20.83;;;12.33;;
19414;SDS011;9843;48.882;12.592;2022-07-10T03:41:57;12.73;;;11.60;;
19414;SDS011;9843;48.882;12.592;2022-07-10T03:44:23;14.17;;;11.30;;
19414;SDS011;9843;48.882;12.592;2022-07-10T03:46:50;13.23;;;11.57;;
19414;SDS011;9843;48.882;12.592;2022-07-10T03:49:17;17.17;;;13.20;;
19414;SDS011;9843;48.882;12.592;2022-07-10T03:51:43;21.17;;;11.30;;
19414;SDS011;9843;48.882;12.592;2022-07-10T03:54:11;11.37;;;10.20;;
19414;SDS011;9843;48.882;12.592;2022-07-10T03:56:38;15.50;;;9.87;;
19414;SDS011;9843;48.882;12.592;2022-07-10T03:59:22;12.33;;;10.67;;
19414;SDS011;9843;48.882;12.592;2022-07-10T04:01:49;13.47;;;10.97;;
19414;SDS011;9843;48.882;12.592;2022-07-10T04:04:15;12.57;;;11.27;;
19414;SDS011;9843;48.882;12.592;2022-07-10T04:06:42;11.47;;;10.17;;
19414;SDS011;9843;48.882;12.592;2022-07-10T04:09:09;16.63;;;9.27;;
19414;SDS011;9843;48.882;12.592;2022-07-10T04:11:37;15.97;;;11.23;;
19414;SDS011;9843;48.882;12.592;2022-07-10T04:14:03;14.53;;;9.23;;
19414;SDS011;9843;48.882;12.592;2022-07-10T04:16:30;13.90;;;10.17;;
19414;SDS011;9843;48.882;12.592;2022-07-10T04:18:57;10.83;;;9.73;;
19414;SDS011;9843;48.882;12.592;2022-07-10T04:21:24;13.23;;;10.37;;
19414;SDS011;9843;48.882;12.592;2022-07-10T04:23:50;10.97;;;8.43;;
19414;SDS011;9843;48.882;12.592;2022-07-10T04:26:17;16.97;;;8.97;;
19414;SDS011;9843;48.882;12.592;2022-07-10T04:28:45;15.67;;;9.03;;
19414;SDS011;9843;48.882;12.592;2022-07-10T04:31:12;7.50;;;6.90;;
19414;SDS011;9843;48.882;12.592;2022-07-10T04:33:38;10.40;;;8.10;;
19414;SDS011;9843;48.882;12.592;2022-07-10T04:36:05;9.00;;;8.10;;
19414;SDS011;9843;48.882;12.592;2022-07-10T04:38:32;8.00;;;7.20;;
19414;SDS011;9843;48.882;12.592;2022-07-10T04:40:59;8.90;;;6.43;;
19414;SDS011;9843;48.882;12.592;2022-07-10T04:43:26;6.53;;;6.03;;
19414;SDS011;9843;48.882;12.592;2022-07-10T04:45:54;11.00;;;7.33;;
19414;SDS011;9843;48.882;12.592;2022-07-10T04:48:21;8.40;;;7.63;;
19414;SDS011;9843;48.882;12.592;2022-07-10T04:50:47;6.80;;;6.20;;
19414;SDS011;9843;48.882;12.592;2022-07-10T04:53:14;8.43;;;7.43;;
19414;SDS011;9843;48.882;12.592;2022-07-10T04:55:41;14.33;;;7.07;;
19414;SDS011;9843;48.882;12.592;2022-07-10T04:58:07;5.80;;;5.17;;
19414;SDS011;9843;48.882;12.592;2022-07-10T05:00:34;6.90;;;6.30;;
19414;SDS011;9843;48.882;12.592;2022-07-10T05:03:02;6.97;;;6.37;;
19414;SDS011;9843;48.882;12.592;2022-07-10T05:05:29;8.67;;;5.30;;
19414;SDS011;9843;48.882;12.592;2022-07-10T05:07:55;8.13;;;5.07;;
19414;SDS011;9843;48.882;12.592;2022-07-10T05:10:23;4.80;;;4.30;;
19414;SDS011;9843;48.882;12.592;2022-07-10T05:12:50;7.93;;;5.40;;
19414;SDS011;9843;48.882;12.592;2022-07-10T05:15:16;12.17;;;5.00;;
19414;SDS011;9843;48.882;12.592;2022-07-10T05:17:43;6.77;;;4.87;;
19414;SDS011;9843;48.882;12.592;2022-07-10T05:20:11;5.27;;;4.77;;
19414;SDS011;9843;48.882;12.592;2022-07-10T05:22:38;5.67;;;3.70;;
19414;SDS011;9843;48.882;12.592;2022-07-10T05:25:05;7.50;;;3.77;;
19414;SDS011;9843;48.882;12.592;2022-07-10T05:27:32;4.70;;;4.30;;
19414;SDS011;9843;48.882;12.592;2022-07-10T05:29:58;6.00;;;4.40;;
19414;SDS011;9843;48.882;12.592;2022-07-10T05:32:25;4.50;;;4.10;;
19414;SDS011;9843;48.882;12.592;2022-07-10T05:34:52;5.30;;;4.17;;
19414;SDS011;9843;48.882;12.592;2022-07-10T05:37:20;5.57;;;4.53;;
19414;SDS011;9843;48.882;12.592;2022-07-10T05:39:46;8.80;;;3.63;;
19414;SDS011;9843;48.882;12.592;2022-07-10T05:42:13;4.17;;;3.77;;
19414;SDS011;9843;48.882;12.592;2022-07-10T05:44:40;4.63;;;4.30;;
19414;SDS011;9843;48.882;12.592;2022-07-10T05:47:06;4.87;;;3.43;;
19414;SDS011;9843;48.882;12.592;2022-07-10T05:49:33;4.77;;;4.23;;
19414;SDS011;9843;48.882;12.592;2022-07-10T05:52:00;3.27;;;2.97;;
19414;SDS011;9843;48.882;12.592;2022-07-10T05:54:28;3.97;;;3.00;;
19414;SDS011;9843;48.882;12.592;2022-07-10T05:56:55;4.20;;;3.80;;
19414;SDS011;9843;48.882;12.592;2022-07-10T05:59:21;5.90;;;4.57;;
19414;SDS011;9843;48.882;12.592;2022-07-10T06:01:48;4.20;;;3.53;;
19414;SDS011;9843;48.882;12.592;2022-07-10T06:04:15;3.20;;;3.00;;
19414;SDS011;9843;48.882;12.592;2022-07-10T06:06:41;4.03;;;3.67;;
19414;SDS011;9843;48.882;12.592;2022-07-10T06:09:08;7.10;;;3.70;;
19414;SDS011;9843;48.882;12.592;2022-07-10T06:11:36;3.20;;;2.90;;
19414;SDS011;9843;48.882;12.592;2022-07-10T06:14:05;4.97;;;2.83;;
19414;SDS011;9843;48.882;12.592;2022-07-10T06:16:32;3.57;;;3.20;;
19414;SDS011;9843;48.882;12.592;2022-07-10T06:18:59;5.27;;;3.37;;
19414;SDS011;9843;48.882;12.592;2022-07-10T06:21:25;3.97;;;3.67;;
19414;SDS011;9843;48.882;12.592;2022-07-10T06:23:52;3.53;;;3.13;;
19414;SDS011;9843;48.882;12.592;2022-07-10T06:26:19;4.47;;;2.90;;
19414;SDS011;9843;48.882;12.592;2022-07-10T06:28:47;5.50;;;2.50;;
19414;SDS011;9843;48.882;12.592;2022-07-10T06:31:14;2.90;;;2.07;;
19414;SDS011;9843;48.882;12.592;2022-07-10T06:33:40;4.70;;;2.27;;
19414;SDS011;9843;48.882;12.592;2022-07-10T06:36:07;1.90;;;1.80;;
19414;SDS011;9843;48.882;12.592;2022-07-10T06:38:34;9.67;;;2.37;;
19414;SDS011;9843;48.882;12.592;2022-07-10T06:41:01;2.60;;;2.03;;
19414;SDS011;9843;48.882;12.592;2022-07-10T06:43:27;7.83;;;1.97;;
19414;SDS011;9843;48.882;12.592;2022-07-10T06:45:55;3.87;;;1.70;;
19414;SDS011;9843;48.882;12.592;2022-07-10T06:48:22;4.67;;;2.60;;
19414;SDS011;9843;48.882;12.592;2022-07-10T06:50:51;7.47;;;2.67;;
19414;SDS011;9843;48.882;12.592;2022-07-10T06:53:18;8.27;;;2.53;;
19414;SDS011;9843;48.882;12.592;2022-07-10T06:55:49;2.10;;;1.90;;
19414;SDS011;9843;48.882;12.592;2022-07-10T06:58:16;5.77;;;1.97;;
19414;SDS011;9843;48.882;12.592;2022-07-10T07:00:42;4.23;;;1.60;;
19414;SDS011;9843;48.882;12.592;2022-07-10T07:03:10;6.20;;;2.20;;
19414;SDS011;9843;48.882;12.592;2022-07-10T07:05:37;6.73;;;2.17;;
19414;SDS011;9843;48.882;12.592;2022-07-10T07:08:04;5.03;;;2.37;;
19414;SDS011;9843;48.882;12.592;2022-07-10T07:10:31;12.10;;;2.43;;
19414;SDS011;9843;48.882;12.592;2022-07-10T07:12:58;9.33;;;1.87;;
19414;SDS011;9843;48.882;12.592;2022-07-10T07:15:27;3.67;;;1.70;;
19414;SDS011;9843;48.882;12.592;2022-07-10T07:17:54;5.63;;;1.43;;
19414;SDS011;9843;48.882;12.592;2022-07-10T07:20:34;5.70;;;1.73;;
19414;SDS011;9843;48.882;12.592;2022-07-10T07:23:18;8.27;;;1.83;;
19414;SDS011;9843;48.882;12.592;2022-07-10T07:25:45;6.47;;;3.20;;
19414;SDS011;9843;48.882;12.592;2022-07-10T07:28:12;8.17;;;1.80;;
19414;SDS011;9843;48.882;12.592;2022-07-10T07:30:41;4.80;;;1.10;;
19414;SDS011;9843;48.882;12.592;2022-07-10T07:33:08;4.30;;;1.80;;
19414;SDS011;9843;48.882;12.592;2022-07-10T07:35:36;5.07;;;2.00;;
19414;SDS011;9843;48.882;12.592;2022-07-10T07:38:03;4.30;;;2.33;;
19414;SDS011;9843;48.882;12.592;2022-07-10T07:40:30;5.30;;;1.73;;
19414;SDS011;9843;48.882;12.592;2022-07-10T07:42:58;5.03;;;2.20;;
19414;SDS011;9843;48.882;12.592;2022-07-10T07:45:25;2.87;;;1.43;;
19414;SDS011;9843;48.882;12.592;2022-07-10T07:47:54;7.17;;;1.83;;
19414;SDS011;9843;48.882;12.592;2022-07-10T07:50:22;5.30;;;1.83;;
19414;SDS011;9843;48.882;12.592;2022-07-10T07:52:52;2.57;;;1.50;;
19414;SDS011;9843;48.882;12.592;2022-07-10T07:55:20;3.90;;;1.53;;
19414;SDS011;9843;48.882;12.592;2022-07-10T07:57:47;7.87;;;2.43;;
19414;SDS011;9843;48.882;12.592;2022-07-10T08:00:18;3.53;;;1.67;;
19414;SDS011;9843;48.882;12.592;2022-07-10T08:02:47;3.17;;;1.77;;
19414;SDS011;9843;48.882;12.592;2022-07-10T08:05:14;2.27;;;1.80;;
19414;SDS011;9843;48.882;12.592;2022-07-10T08:07:41;7.40;;;1.60;;
19414;SDS011;9843;48.882;12.592;2022-07-10T08:10:12;3.77;;;1.90;;
19414;SDS011;9843;48.882;12.592;2022-07-10T08:12:39;4.30;;;1.70;;
19414;SDS011;9843;48.882;12.592;2022-07-10T08:15:07;3.10;;;1.43;;
19414;SDS011;9843;48.882;12.592;2022-07-10T08:17:34;4.07;;;1.67;;
19414;SDS011;9843;48.882;12.592;2022-07-10T08:20:01;2.73;;;1.47;;
19414;SDS011;9843;48.882;12.592;2022-07-10T08:22:28;4.63;;;1.57;;
19414;SDS011;9843;48.882;12.592;2022-07-10T08:24:54;4.53;;;1.33;;
19414;SDS011;9843;48.882;12.592;2022-07-10T08:27:23;1.20;;;1.00;;
19414;SDS011;9843;48.882;12.592;2022-07-10T08:29:50;8.03;;;1.83;;
19414;SDS011;9843;48.882;12.592;2022-07-10T08:32:17;4.33;;;1.80;;
19414;SDS011;9843;48.882;12.592;2022-07-10T08:34:44;5.47;;;1.30;;
19414;SDS011;9843;48.882;12.592;2022-07-10T08:37:10;6.00;;;1.30;;
19414;SDS011;9843;48.882;12.592;2022-07-10T08:39:37;9.27;;;1.63;;
19414;SDS011;9843;48.882;12.592;2022-07-10T08:42:04;1.60;;;0.83;;
19414;SDS011;9843;48.882;12.592;2022-07-10T08:44:34;1.83;;;0.90;;
19414;SDS011;9843;48.882;12.592;2022-07-10T08:47:01;2.42;;;0.88;;
19414;SDS011;9843;48.882;12.592;2022-07-10T08:49:28;3.67;;;0.93;;
19414;SDS011;9843;48.882;12.592;2022-07-10T08:51:57;1.02;;;0.70;;
19414;SDS011;9843;48.882;12.592;2022-07-10T08:54:25;4.55;;;0.60;;
19414;SDS011;9843;48.882;12.592;2022-07-10T08:56:55;1.95;;;0.55;;
19414;SDS011;9843;48.882;12.592;2022-07-10T08:59:23;1.77;;;0.45;;
19414;SDS011;9843;48.882;12.592;2022-07-10T09:01:51;3.47;;;0.77;;
19414;SDS011;9843;48.882;12.592;2022-07-10T09:04:19;4.95;;;0.63;;
19414;SDS011;9843;48.882;12.592;2022-07-10T09:06:46;4.38;;;1.33;;
19414;SDS011;9843;48.882;12.592;2022-07-10T09:09:13;4.57;;;1.40;;
19414;SDS011;9843;48.882;12.592;2022-07-10T09:11:40;3.78;;;1.00;;
19414;SDS011;9843;48.882;12.592;2022-07-10T09:14:08;3.65;;;0.55;;
19414;SDS011;9843;48.882;12.592;2022-07-10T09:16:37;1.95;;;0.57;;
19414;SDS011;9843;48.882;12.592;2022-07-10T09:19:16;2.78;;;0.75;;
19414;SDS011;9843;48.882;12.592;2022-07-10T09:21:44;3.75;;;0.90;;
19414;SDS011;9843;48.882;12.592;2022-07-10T09:24:12;5.72;;;1.40;;
19414;SDS011;9843;48.882;12.592;2022-07-10T09:26:39;2.35;;;0.73;;
19414;SDS011;9843;48.882;12.592;2022-07-10T09:29:07;4.60;;;1.08;;
19414;SDS011;9843;48.882;12.592;2022-07-10T09:31:48;2.05;;;0.43;;
19414;SDS011;9843;48.882;12.592;2022-07-10T09:34:17;2.55;;;0.63;;
19414;SDS011;9843;48.882;12.592;2022-07-10T09:36:44;4.50;;;1.17;;
19414;SDS011;9843;48.882;12.592;2022-07-10T09:39:11;0.82;;;0.50;;
19414;SDS011;9843;48.882;12.592;2022-07-10T09:41:37;1.35;;;0.73;;
19414;SDS011;9843;48.882;12.592;2022-07-10T09:44:05;3.20;;;0.80;;
19414;SDS011;9843;48.882;12.592;2022-07-10T09:46:33;1.02;;;0.40;;
19414;SDS011;9843;48.882;12.592;2022-07-10T09:49:02;4.95;;;1.67;;
19414;SDS011;9843;48.882;12.592;2022-07-10T09:51:32;3.53;;;0.77;;
19414;SDS011;9843;48.882;12.592;2022-07-10T09:54:00;7.60;;;1.13;;
19414;SDS011;9843;48.882;12.592;2022-07-10T09:56:30;5.22;;;0.57;;
19414;SDS011;9843;48.882;12.592;2022-07-10T09:59:00;6.65;;;0.90;;
19414;SDS011;9843;48.882;12.592;2022-07-10T10:01:32;3.80;;;0.95;;
19414;SDS011;9843;48.882;12.592;2022-07-10T10:04:01;3.17;;;0.70;;
19414;SDS011;9843;48.882;12.592;2022-07-10T10:06:32;1.40;;;0.55;;
19414;SDS011;9843;48.882;12.592;2022-07-10T10:09:03;4.28;;;0.63;;
19414;SDS011;9843;48.882;12.592;2022-07-10T10:11:31;4.22;;;1.85;;
19414;SDS011;9843;48.882;12.592;2022-07-10T10:14:00;2.45;;;0.63;;
19414;SDS011;9843;48.882;12.592;2022-07-10T10:16:28;3.60;;;0.90;;
19414;SDS011;9843;48.882;12.592;2022-07-10T10:18:55;1.70;;;0.63;;
19414;SDS011;9843;48.882;12.592;2022-07-10T10:21:41;1.60;;;0.63;;
19414;SDS011;9843;48.882;12.592;2022-07-10T10:24:09;1.73;;;0.60;;
19414;SDS011;9843;48.882;12.592;2022-07-10T10:26:36;1.92;;;0.35;;
19414;SDS011;9843;48.882;12.592;2022-07-10T10:29:03;1.58;;;0.80;;
19414;SDS011;9843;48.882;12.592;2022-07-10T10:31:32;3.80;;;1.00;;
19414;SDS011;9843;48.882;12.592;2022-07-10T10:34:00;4.25;;;2.42;;
19414;SDS011;9843;48.882;12.592;2022-07-10T10:36:47;7.43;;;3.25;;
19414;SDS011;9843;48.882;12.592;2022-07-10T10:39:14;2.55;;;0.70;;
19414;SDS011;9843;48.882;12.592;2022-07-10T10:41:44;5.10;;;1.02;;
19414;SDS011;9843;48.882;12.592;2022-07-10T10:44:23;1.38;;;0.73;;
19414;SDS011;9843;48.882;12.592;2022-07-10T10:49:48;3.28;;;2.03;;
19414;SDS011;9843;48.882;12.592;2022-07-10T10:52:22;1.95;;;0.75;;
19414;SDS011;9843;48.882;12.592;2022-07-10T10:55:00;3.63;;;1.13;;
19414;SDS011;9843;48.882;12.592;2022-07-10T10:57:35;1.05;;;0.40;;
19414;SDS011;9843;48.882;12.592;2022-07-10T11:00:05;1.42;;;0.63;;
19414;SDS011;9843;48.882;12.592;2022-07-10T11:02:33;1.30;;;0.77;;
19414;SDS011;9843;48.882;12.592;2022-07-10T11:08:11;1.60;;;0.70;;
19414;SDS011;9843;48.882;12.592;2022-07-10T11:10:39;3.15;;;0.93;;
19414;SDS011;9843;48.882;12.592;2022-07-10T11:13:07;3.75;;;0.60;;
19414;SDS011;9843;48.882;12.592;2022-07-10T11:15:35;1.88;;;0.70;;
19414;SDS011;9843;48.882;12.592;2022-07-10T11:18:03;1.00;;;0.50;;
19414;SDS011;9843;48.882;12.592;2022-07-10T11:20:34;3.47;;;0.63;;
19414;SDS011;9843;48.882;12.592;2022-07-10T11:23:06;1.58;;;0.75;;
19414;SDS011;9843;48.882;12.592;2022-07-10T11:25:45;4.10;;;0.50;;
19414;SDS011;9843;48.882;12.592;2022-07-10T11:28:27;2.70;;;1.00;;
19414;SDS011;9843;48.882;12.592;2022-07-10T11:31:07;2.30;;;0.93;;
19414;SDS011;9843;48.882;12.592;2022-07-10T11:33:38;4.35;;;0.50;;
19414;SDS011;9843;48.882;12.592;2022-07-10T11:36:09;1.58;;;0.47;;
19414;SDS011;9843;48.882;12.592;2022-07-10T11:38:40;5.85;;;3.22;;
19414;SDS011;9843;48.882;12.592;2022-07-10T11:41:13;2.63;;;0.98;;
19414;SDS011;9843;48.882;12.592;2022-07-10T11:43:47;3.10;;;0.70;;
19414;SDS011;9843;48.882;12.592;2022-07-10T11:46:15;5.97;;;0.85;;
19414;SDS011;9843;48.882;12.592;2022-07-10T11:48:42;0.80;;;0.50;;
19414;SDS011;9843;48.882;12.592;2022-07-10T11:51:17;5.47;;;1.80;;
19414;SDS011;9843;48.882;12.592;2022-07-10T11:53:54;1.13;;;0.40;;
19414;SDS011;9843;48.882;12.592;2022-07-10T11:56:22;1.73;;;0.60;;
19414;SDS011;9843;48.882;12.592;2022-07-10T11:58:53;3.83;;;0.93;;
19414;SDS011;9843;48.882;12.592;2022-07-10T12:01:20;4.43;;;0.85;;
19414;SDS011;9843;48.882;12.592;2022-07-10T12:03:53;2.47;;;0.95;;
19414;SDS011;9843;48.882;12.592;2022-07-10T12:06:21;2.90;;;0.70;;
19414;SDS011;9843;48.882;12.592;2022-07-10T12:08:49;2.13;;;0.90;;
19414;SDS011;9843;48.882;12.592;2022-07-10T12:11:18;2.22;;;0.93;;
19414;SDS011;9843;48.882;12.592;2022-07-10T12:13:46;3.55;;;0.70;;
19414;SDS011;9843;48.882;12.592;2022-07-10T12:16:14;1.90;;;0.70;;
19414;SDS011;9843;48.882;12.592;2022-07-10T12:18:41;1.00;;;0.60;;
19414;SDS011;9843;48.882;12.592;2022-07-10T12:21:08;1.33;;;0.50;;
19414;SDS011;9843;48.882;12.592;2022-07-10T12:23:36;4.40;;;2.03;;
19414;SDS011;9843;48.882;12.592;2022-07-10T12:26:07;0.50;;;0.50;;
19414;SDS011;9843;48.882;12.592;2022-07-10T12:28:48;3.25;;;0.90;;
19414;SDS011;9843;48.882;12.592;2022-07-10T12:31:20;1.77;;;1.45;;
19414;SDS011;9843;48.882;12.592;2022-07-10T12:33:51;0.70;;;0.60;;
19414;SDS011;9843;48.882;12.592;2022-07-10T12:36:20;0.77;;;0.60;;
19414;SDS011;9843;48.882;12.592;2022-07-10T12:38:55;6.13;;;0.73;;
19414;SDS011;9843;48.882;12.592;2022-07-10T12:41:23;0.47;;;0.40;;
19414;SDS011;9843;48.882;12.592;2022-07-10T12:43:52;5.05;;;0.57;;
19414;SDS011;9843;48.882;12.592;2022-07-10T12:46:20;2.88;;;0.90;;
19414;SDS011;9843;48.882;12.592;2022-07-10T12:49:03;1.75;;;1.02;;
19414;SDS011;9843;48.882;12.592;2022-07-10T12:51:31;1.58;;;0.77;;
19414;SDS011;9843;48.882;12.592;2022-07-10T12:53:59;3.08;;;0.65;;
19414;SDS011;9843;48.882;12.592;2022-07-10T12:56:27;3.45;;;0.88;;
19414;SDS011;9843;48.882;12.592;2022-07-10T12:58:59;2.30;;;1.10;;
19414;SDS011;9843;48.882;12.592;2022-07-10T13:01:27;4.10;;;0.85;;
19414;SDS011;9843;48.882;12.592;2022-07-10T13:03:58;5.28;;;0.70;;
19414;SDS011;9843;48.882;12.592;2022-07-10T13:06:26;1.55;;;1.02;;
19414;SDS011;9843;48.882;12.592;2022-07-10T13:08:53;2.95;;;0.75;;
19414;SDS011;9843;48.882;12.592;2022-07-10T13:11:20;0.50;;;0.50;;
19414;SDS011;9843;48.882;12.592;2022-07-10T13:13:47;2.25;;;0.60;;
19414;SDS011;9843;48.882;12.592;2022-07-10T13:16:16;1.17;;;0.75;;
19414;SDS011;9843;48.882;12.592;2022-07-10T13:18:42;0.63;;;0.43;;
19414;SDS011;9843;48.882;12.592;2022-07-10T13:21:10;2.35;;;0.75;;
19414;SDS011;9843;48.882;12.592;2022-07-10T13:23:37;0.80;;;0.50;;
19414;SDS011;9843;48.882;12.592;2022-07-10T13:26:04;1.48;;;0.60;;
19414;SDS011;9843;48.882;12.592;2022-07-10T13:28:32;3.10;;;0.63;;
19414;SDS011;9843;48.882;12.592;2022-07-10T13:31:00;0.47;;;0.47;;
19414;SDS011;9843;48.882;12.592;2022-07-10T13:33:28;2.35;;;0.68;;
19414;SDS011;9843;48.882;12.592;2022-07-10T13:35:58;1.40;;;0.85;;
19414;SDS011;9843;48.882;12.592;2022-07-10T13:38:25;2.25;;;0.60;;
19414;SDS011;9843;48.882;12.592;2022-07-10T13:40:52;2.95;;;0.77;;
19414;SDS011;9843;48.882;12.592;2022-07-10T13:43:19;0.87;;;0.83;;
19414;SDS011;9843;48.882;12.592;2022-07-10T13:45:46;1.20;;;0.63;;
19414;SDS011;9843;48.882;12.592;2022-07-10T13:48:14;1.73;;;0.80;;
19414;SDS011;9843;48.882;12.592;2022-07-10T13:50:43;2.93;;;1.20;;
19414;SDS011;9843;48.882;12.592;2022-07-10T13:53:12;1.17;;;1.00;;
19414;SDS011;9843;48.882;12.592;2022-07-10T13:55:39;2.77;;;0.80;;
19414;SDS011;9843;48.882;12.592;2022-07-10T13:58:06;1.53;;;0.80;;
19414;SDS011;9843;48.882;12.592;2022-07-10T14:00:33;1.20;;;0.70;;
19414;SDS011;9843;48.882;12.592;2022-07-10T14:03:00;0.63;;;0.60;;
19414;SDS011;9843;48.882;12.592;2022-07-10T14:05:27;2.30;;;1.30;;
19414;SDS011;9843;48.882;12.592;2022-07-10T14:07:55;3.27;;;0.70;;
19414;SDS011;9843;48.882;12.592;2022-07-10T14:10:22;1.83;;;0.70;;
19414;SDS011;9843;48.882;12.592;2022-07-10T14:12:49;1.27;;;1.13;;
19414;SDS011;9843;48.882;12.592;2022-07-10T14:15:16;1.63;;;1.00;;
19414;SDS011;9843;48.882;12.592;2022-07-10T14:17:43;0.53;;;0.53;;
19414;SDS011;9843;48.882;12.592;2022-07-10T14:20:10;0.80;;;0.70;;
19414;SDS011;9843;48.882;12.592;2022-07-10T14:22:37;1.23;;;0.80;;
19414;SDS011;9843;48.882;12.592;2022-07-10T14:25:06;1.73;;;1.63;;
19414;SDS011;9843;48.882;12.592;2022-07-10T14:27:34;0.50;;;0.50;;
19414;SDS011;9843;48.882;12.592;2022-07-10T14:30:01;1.20;;;1.10;;
19414;SDS011;9843;48.882;12.592;2022-07-10T14:32:28;1.27;;;0.60;;
19414;SDS011;9843;48.882;12.592;2022-07-10T14:34:55;0.60;;;0.60;;
19414;SDS011;9843;48.882;12.592;2022-07-10T14:37:22;0.70;;;0.70;;
19414;SDS011;9843;48.882;12.592;2022-07-10T14:39:49;1.27;;;0.80;;
19414;SDS011;9843;48.882;12.592;2022-07-10T14:42:17;2.73;;;1.00;;
19414;SDS011;9843;48.882;12.592;2022-07-10T14:44:44;2.30;;;1.20;;
19414;SDS011;9843;48.882;12.592;2022-07-10T14:47:11;1.07;;;0.93;;
19414;SDS011;9843;48.882;12.592;2022-07-10T14:49:37;2.97;;;1.00;;
19414;SDS011;9843;48.882;12.592;2022-07-10T14:52:04;2.33;;;0.90;;